createdAt,value
2023-03-06T00:01:01.375Z,74.42
2023-03-06T00:04:03.296Z,74.30
2023-03-06T00:07:05.063Z,74.94
2023-03-06T00:10:07.088Z,74.88
2023-03-06T00:13:12.422Z,75.46
2023-03-06T00:16:14.327Z,75.77
2023-03-06T00:19:16.251Z,77.22
2023-03-06T00:22:18.478Z,77.27
2023-03-06T00:25:21.610Z,76.52
2023-03-06T00:28:23.689Z,76.58
2023-03-06T00:31:25.507Z,76.76
2023-03-06T00:34:27.656Z,76.41
2023-03-06T00:37:29.501Z,76.64
2023-03-06T00:40:31.480Z,76.73
2023-03-06T00:43:33.308Z,76.81
2023-03-06T00:46:35.222Z,77.09
2023-03-06T00:49:37.301Z,76.81
2023-03-06T00:52:39.544Z,77.00
2023-03-06T00:55:44.854Z,77.36
2023-03-06T00:58:46.682Z,77.61
2023-03-06T01:01:48.577Z,77.91
2023-03-06T01:04:50.480Z,78.57
2023-03-06T01:07:52.247Z,78.79
2023-03-06T01:10:54.131Z,78.60
2023-03-06T01:13:56.076Z,78.78
2023-03-06T01:16:58.205Z,79.11
2023-03-06T01:20:01.456Z,79.20
2023-03-06T01:23:03.265Z,79.37
2023-03-06T01:26:05.531Z,79.14
2023-03-06T01:29:07.542Z,79.59
2023-03-06T01:32:09.344Z,79.75
2023-03-06T01:35:12.187Z,79.48
2023-03-06T01:38:14.412Z,79.62
2023-03-06T01:41:16.456Z,79.80
2023-03-06T01:44:18.262Z,79.95
2023-03-06T01:47:20.019Z,79.48
2023-03-06T01:50:21.893Z,79.56
2023-03-06T01:53:23.838Z,80.02
2023-03-06T01:56:25.691Z,80.14
2023-03-06T01:59:27.831Z,80.65
2023-03-06T02:02:29.800Z,80.49
2023-03-06T02:05:31.820Z,80.67
2023-03-06T02:08:33.786Z,80.62
2023-03-06T02:11:35.759Z,80.20
2023-03-06T02:14:38.694Z,80.70
2023-03-06T02:17:42.734Z,81.99
2023-03-06T02:20:48.648Z,81.81
2023-03-06T02:24:15.201Z,82.44
2023-03-06T02:27:17.648Z,81.94
2023-03-06T02:30:19.615Z,82.16
2023-03-06T02:33:24.414Z,82.62
2023-03-06T02:36:26.487Z,82.86
2023-03-06T02:39:30.296Z,83.22
2023-03-06T02:42:32.225Z,83.16
2023-03-06T02:45:39.262Z,83.44
2023-03-06T02:48:41.576Z,83.44
2023-03-06T02:51:43.318Z,83.37
2023-03-06T02:54:45.048Z,83.35
2023-03-06T02:57:46.873Z,82.93
2023-03-06T03:00:49.205Z,83.28
2023-03-06T03:03:51.084Z,83.39
2023-03-06T03:06:52.868Z,83.27
2023-03-06T03:09:54.706Z,83.60
2023-03-06T03:12:57.594Z,83.48
2023-03-06T03:16:04.072Z,82.90
2023-03-06T03:19:06.185Z,83.37
2023-03-06T03:22:08.210Z,83.51
2023-03-06T03:25:10.156Z,83.67
2023-03-06T03:28:12.016Z,83.46
2023-03-06T03:31:14.100Z,83.34
2023-03-06T03:34:16.029Z,83.09
2023-03-06T03:37:18.569Z,83.32
2023-03-06T03:40:20.622Z,83.87
2023-03-06T03:43:22.512Z,83.56
2023-03-06T03:46:24.385Z,83.28
2023-03-06T03:49:26.336Z,83.23
2023-03-06T03:52:28.186Z,83.65
2023-03-06T03:55:30.086Z,83.74
2023-03-06T03:58:32.123Z,83.14
2023-03-06T04:01:34.150Z,83.95
2023-03-06T04:04:36.028Z,84.03
2023-03-06T04:07:38.104Z,83.78
2023-03-06T04:10:45.557Z,84.19
2023-03-06T04:13:47.436Z,83.67
2023-03-06T04:16:49.244Z,84.05
2023-03-06T04:19:51.081Z,84.58
2023-03-06T04:22:52.847Z,84.34
2023-03-06T04:25:54.805Z,84.59
2023-03-06T04:28:56.865Z,84.58
2023-03-06T04:31:58.671Z,85.19
2023-03-06T04:35:00.517Z,85.01
2023-03-06T04:38:02.629Z,84.23
2023-03-06T04:41:04.469Z,84.30
2023-03-06T04:44:07.136Z,84.98
2023-03-06T04:47:09.175Z,84.76
2023-03-06T04:50:11.907Z,85.32
2023-03-06T04:53:14.644Z,85.49
2023-03-06T04:56:16.530Z,85.83
2023-03-06T04:59:18.722Z,85.72
2023-03-06T05:02:20.790Z,85.85
2023-03-06T05:05:22.624Z,86.50
2023-03-06T05:08:24.508Z,86.78
2023-03-06T05:11:26.565Z,87.16
2023-03-06T05:14:31.807Z,87.62
2023-03-06T05:17:33.886Z,87.33
2023-03-06T05:20:35.728Z,88.85
2023-03-06T05:23:41.130Z,88.70
2023-03-06T05:26:42.986Z,89.15
2023-03-06T05:29:44.941Z,89.33
2023-03-06T05:32:46.984Z,89.18
2023-03-06T05:35:49.448Z,89.85
2023-03-06T05:38:51.755Z,89.56
2023-03-06T05:41:53.952Z,89.87
2023-03-06T05:44:55.717Z,90.47
2023-03-06T05:47:57.659Z,90.42
2023-03-06T05:51:01.443Z,91.50
2023-03-06T05:54:03.176Z,91.40
2023-03-06T05:57:05.534Z,91.25
2023-03-06T06:00:09.176Z,91.77
2023-03-06T06:03:12.739Z,91.50
2023-03-06T06:06:15.607Z,92.03
2023-03-06T06:09:17.790Z,91.98
2023-03-06T06:12:19.565Z,91.60
2023-03-06T06:15:21.360Z,92.61
2023-03-06T06:18:23.225Z,92.72
2023-03-06T06:21:25.576Z,92.62
2023-03-06T06:24:27.427Z,92.89
2023-03-06T06:27:29.225Z,92.74
2023-03-06T06:30:31.871Z,92.86
2023-03-06T06:33:33.700Z,92.83
2023-03-06T06:36:35.526Z,93.36
2023-03-06T06:39:37.533Z,92.83
2023-03-06T06:42:40.375Z,93.58
2023-03-06T06:45:44.200Z,93.88
2023-03-06T06:48:52.553Z,93.78
2023-03-06T06:51:54.283Z,93.39
2023-03-06T06:54:56.136Z,93.09
2023-03-06T06:57:57.948Z,93.73
2023-03-06T07:01:10.837Z,93.70
2023-03-06T07:04:13.869Z,94.33
2023-03-06T07:07:15.672Z,94.61
2023-03-06T07:10:20.006Z,93.96
2023-03-06T07:13:22.852Z,94.25
2023-03-06T07:16:24.636Z,94.10
2023-03-06T07:19:26.545Z,94.03
2023-03-06T07:22:31.924Z,93.99
2023-03-06T07:25:38.062Z,94.20
2023-03-06T07:28:51.519Z,94.15
2023-03-06T07:31:54.420Z,94.17
2023-03-06T07:35:13.724Z,94.20
2023-03-06T07:38:18.686Z,94.28
2023-03-06T07:41:22.604Z,94.17
2023-03-06T07:44:24.522Z,94.27
2023-03-06T07:47:26.305Z,94.51
2023-03-06T07:50:28.313Z,94.21
2023-03-06T07:53:30.742Z,94.18
2023-03-06T07:56:35.047Z,94.17
2023-03-06T07:59:38.304Z,94.13
2023-03-06T08:02:41.306Z,94.39
2023-03-06T08:05:44.748Z,94.80
2023-03-06T08:08:47.797Z,95.12
2023-03-06T08:11:49.806Z,95.51
2023-03-06T08:14:51.584Z,96.15
2023-03-06T08:17:53.751Z,96.94
2023-03-06T08:21:10.513Z,97.23
2023-03-06T08:24:13.278Z,97.28
2023-03-06T08:27:15.086Z,96.77
2023-03-06T08:30:17.150Z,96.60
2023-03-06T08:33:18.935Z,97.52
2023-03-06T08:36:20.809Z,97.66
2023-03-06T08:39:23.774Z,96.72
2023-03-06T08:42:25.806Z,97.35
2023-03-06T08:45:27.672Z,97.48
2023-03-06T08:48:29.777Z,97.08
2023-03-06T08:51:31.708Z,97.19
2023-03-06T08:54:35.565Z,97.37
2023-03-06T08:57:37.553Z,97.18
2023-03-06T09:00:39.627Z,96.17
2023-03-06T09:03:41.436Z,96.47
2023-03-06T09:06:43.736Z,97.00
2023-03-06T09:09:45.503Z,96.94
2023-03-06T09:12:50.880Z,96.25
2023-03-06T09:15:54.165Z,97.13
2023-03-06T09:18:57.317Z,97.12
2023-03-06T09:22:01.104Z,97.02
2023-03-06T09:25:04.095Z,95.86
2023-03-06T09:28:11.648Z,96.19
2023-03-06T09:31:19.714Z,96.47
2023-03-06T09:34:21.586Z,95.86
2023-03-06T09:37:23.477Z,95.46
2023-03-06T09:40:39.173Z,94.95
2023-03-06T09:43:47.153Z,95.36
2023-03-06T09:47:07.174Z,96.19
2023-03-06T09:50:38.642Z,95.01
2023-03-06T09:53:46.588Z,94.27
2023-03-06T09:56:49.912Z,93.89
2023-03-06T09:59:55.333Z,93.70
2023-03-06T10:03:12.217Z,93.53
2023-03-06T10:06:30.543Z,93.40
2023-03-06T10:10:07.540Z,94.23
2023-03-06T10:13:25.384Z,94.05
2023-03-06T10:16:32.572Z,94.65
2023-03-06T10:19:36.945Z,93.49
2023-03-06T10:22:39.825Z,93.48
2023-03-06T10:26:01.289Z,93.32
2023-03-06T10:30:02.166Z,93.91
2023-03-06T10:33:22.780Z,95.31
2023-03-06T10:36:29.777Z,93.57
2023-03-06T10:39:31.722Z,93.48
2023-03-06T10:42:34.658Z,93.51
2023-03-06T10:45:49.169Z,92.47
2023-03-06T10:48:58.763Z,92.00
2023-03-06T10:52:00.696Z,91.61
2023-03-06T10:55:22.716Z,91.02
2023-03-06T10:58:30.043Z,90.42
2023-03-06T11:01:31.950Z,90.49
2023-03-06T11:04:35.641Z,90.50
2023-03-06T11:08:02.057Z,90.38
2023-03-06T11:11:10.535Z,88.68
2023-03-06T11:14:18.429Z,87.30
2023-03-06T11:17:28.514Z,88.05
2023-03-06T11:20:50.059Z,87.76
2023-03-06T11:23:54.448Z,87.06
2023-03-06T11:27:02.046Z,85.88
2023-03-06T11:30:06.194Z,84.85
2023-03-06T11:33:16.774Z,85.54
2023-03-06T11:36:38.953Z,85.84
2023-03-06T11:39:49.419Z,85.73
2023-03-06T11:43:02.629Z,84.51
2023-03-06T11:46:27.898Z,85.48
2023-03-06T11:49:35.026Z,85.47
2023-03-06T11:52:43.130Z,85.37
2023-03-06T11:56:03.764Z,84.40
2023-03-06T11:59:14.936Z,83.98
2023-03-06T12:02:31.889Z,82.91
2023-03-06T12:05:38.202Z,84.46
2023-03-06T12:08:43.508Z,83.45
2023-03-06T12:12:04.106Z,83.35
2023-03-06T12:15:08.862Z,83.83
2023-03-06T12:18:32.255Z,84.34
2023-03-06T12:21:42.207Z,83.45
2023-03-06T12:25:26.916Z,82.89
2023-03-06T12:28:51.450Z,83.02
2023-03-06T12:32:04.809Z,83.33
2023-03-06T12:35:49.052Z,83.97
2023-03-06T12:39:01.447Z,82.99
2023-03-06T12:42:22.642Z,82.15
2023-03-06T12:45:34.702Z,82.85
2023-03-06T12:48:37.567Z,82.55
2023-03-06T12:51:39.971Z,82.22
2023-03-06T12:54:41.958Z,81.67
2023-03-06T12:57:43.911Z,82.03
2023-03-06T13:01:06.009Z,81.85
2023-03-06T13:04:26.629Z,80.96
2023-03-06T13:07:52.803Z,81.26
2023-03-06T13:11:23.840Z,81.06
2023-03-06T13:14:54.562Z,81.42
2023-03-06T13:17:57.360Z,81.23
2023-03-06T13:20:59.418Z,81.29
2023-03-06T13:24:05.533Z,81.04
2023-03-06T13:27:09.959Z,81.57
2023-03-06T13:30:36.702Z,81.19
2023-03-06T13:33:38.727Z,80.25
2023-03-06T13:36:40.591Z,80.01
2023-03-06T13:39:54.886Z,80.08
2023-03-06T13:43:03.378Z,80.29
2023-03-06T13:46:19.321Z,79.68
2023-03-06T13:49:24.151Z,80.44
2023-03-06T13:52:38.446Z,80.64
2023-03-06T13:56:18.341Z,81.60
2023-03-06T13:59:31.983Z,80.94
2023-03-06T14:02:58.174Z,81.27
2023-03-06T14:06:00.053Z,80.76
2023-03-06T14:09:07.095Z,80.67
2023-03-06T14:12:19.056Z,81.03
2023-03-06T14:15:25.694Z,80.96
2023-03-06T14:18:47.232Z,81.04
2023-03-06T14:21:56.747Z,81.33
2023-03-06T14:25:05.652Z,81.05
2023-03-06T14:28:21.909Z,81.32
2023-03-06T14:31:36.388Z,81.44
2023-03-06T14:34:45.907Z,81.34
2023-03-06T14:37:53.238Z,81.90
2023-03-06T14:40:55.536Z,81.18
2023-03-06T14:44:19.342Z,81.12
2023-03-06T14:47:26.715Z,81.98
2023-03-06T14:50:34.291Z,82.01
2023-03-06T14:53:36.103Z,81.62
2023-03-06T14:56:42.112Z,81.70
2023-03-06T14:59:49.211Z,82.46
2023-03-06T15:02:51.881Z,82.18
2023-03-06T15:05:54.536Z,82.35
2023-03-06T15:09:07.932Z,81.87
2023-03-06T15:12:22.760Z,82.25
2023-03-06T15:15:28.440Z,82.18
2023-03-06T15:18:36.170Z,82.28
2023-03-06T15:21:38.447Z,82.02
2023-03-06T15:24:40.277Z,81.84
2023-03-06T15:27:54.576Z,81.83
2023-03-06T15:31:19.981Z,82.09
2023-03-06T15:34:25.875Z,82.21
2023-03-06T15:37:28.892Z,81.58
2023-03-06T15:40:31.858Z,81.93
2023-03-06T15:43:40.018Z,82.64
2023-03-06T15:46:42.052Z,82.70
2023-03-06T15:49:43.943Z,82.81
2023-03-06T15:52:46.432Z,83.14
2023-03-06T15:55:49.246Z,82.80
2023-03-06T15:58:51.460Z,82.80
2023-03-06T16:01:54.170Z,83.30
2023-03-06T16:04:56.193Z,83.31
2023-03-06T16:07:57.939Z,83.05
2023-03-06T16:11:00.061Z,83.08
2023-03-06T16:14:02.036Z,83.23
2023-03-06T16:17:04.113Z,83.72
2023-03-06T16:20:09.056Z,83.99
2023-03-06T16:23:11.289Z,84.01
2023-03-06T16:26:34.410Z,84.27
2023-03-06T16:29:36.668Z,84.60
2023-03-06T16:32:39.316Z,84.78
2023-03-06T16:35:44.402Z,84.97
2023-03-06T16:38:48.084Z,85.12
2023-03-06T16:41:50.537Z,84.93
2023-03-06T16:44:52.512Z,85.24
2023-03-06T16:47:54.540Z,85.41
2023-03-06T16:50:59.060Z,85.68
2023-03-06T16:54:00.927Z,85.57
2023-03-06T16:57:02.737Z,85.56
2023-03-06T17:00:06.661Z,85.46
2023-03-06T17:03:08.817Z,85.83
2023-03-06T17:06:18.978Z,86.74
2023-03-06T17:09:20.757Z,86.98
2023-03-06T17:12:22.870Z,88.66
2023-03-06T17:15:24.670Z,88.25
2023-03-06T17:18:27.873Z,88.61
2023-03-06T17:21:30.449Z,89.12
2023-03-06T17:24:32.555Z,88.63
2023-03-06T17:27:34.918Z,88.25
2023-03-06T17:30:37.201Z,88.87
2023-03-06T17:33:39.169Z,89.43
2023-03-06T17:36:40.967Z,90.51
2023-03-06T17:39:43.111Z,89.80
2023-03-06T17:42:45.136Z,89.50
2023-03-06T17:45:50.133Z,90.20
2023-03-06T17:48:52.201Z,90.45
2023-03-06T17:51:56.446Z,90.54
2023-03-06T17:54:58.195Z,90.73
2023-03-06T17:58:00.167Z,91.18
2023-03-06T18:01:12.986Z,91.05
2023-03-06T18:04:15.040Z,90.39
2023-03-06T18:07:16.871Z,90.35
2023-03-06T18:10:18.968Z,91.12
2023-03-06T18:13:22.206Z,91.17
2023-03-06T18:16:26.567Z,90.81
2023-03-06T18:19:28.375Z,90.94
2023-03-06T18:22:30.620Z,91.98
2023-03-06T18:25:32.636Z,92.30
2023-03-06T18:28:34.803Z,91.87
2023-03-06T18:31:39.055Z,91.48
2023-03-06T18:34:41.014Z,92.21
2023-03-06T18:37:44.260Z,94.07
2023-03-06T18:40:46.894Z,93.71
2023-03-06T18:43:53.602Z,93.28
2023-03-06T18:46:55.824Z,93.21
2023-03-06T18:49:58.120Z,93.32
2023-03-06T18:53:00.473Z,93.38
2023-03-06T18:56:03.384Z,94.21
2023-03-06T18:59:06.951Z,94.27
2023-03-06T19:02:10.654Z,95.39
2023-03-06T19:05:13.895Z,95.75
2023-03-06T19:08:17.538Z,95.68
2023-03-06T19:11:19.866Z,95.82
2023-03-06T19:14:22.067Z,96.15
2023-03-06T19:17:25.054Z,96.72
2023-03-06T19:20:27.532Z,96.19
2023-03-06T19:23:30.099Z,95.84
2023-03-06T19:26:32.914Z,95.86
2023-03-06T19:29:35.244Z,95.70
2023-03-06T19:32:37.485Z,95.64
2023-03-06T19:35:39.760Z,95.46
2023-03-06T19:38:42.295Z,95.39
2023-03-06T19:41:46.450Z,95.40
2023-03-06T19:44:49.102Z,95.40
2023-03-06T19:47:53.715Z,95.70
2023-03-06T19:50:56.334Z,96.35
2023-03-06T19:54:00.244Z,95.93
2023-03-06T19:57:02.487Z,96.17
2023-03-06T20:00:05.224Z,96.29
2023-03-06T20:03:07.428Z,96.20
2023-03-06T20:06:18.560Z,96.37
2023-03-06T20:09:20.643Z,96.36
2023-03-06T20:12:22.851Z,96.17
2023-03-06T20:15:26.199Z,96.13
2023-03-06T20:18:28.564Z,96.21
2023-03-06T20:21:33.808Z,96.22
2023-03-06T20:24:35.848Z,96.14
2023-03-06T20:27:38.135Z,96.29
2023-03-06T20:30:39.894Z,96.81
2023-03-06T20:33:42.324Z,96.67
2023-03-06T20:36:44.497Z,96.60
2023-03-06T20:39:47.902Z,97.22
2023-03-06T20:42:49.893Z,98.06
2023-03-06T20:45:59.467Z,98.63
2023-03-06T20:49:01.993Z,99.02
2023-03-06T20:52:04.321Z,99.11
2023-03-06T20:55:07.670Z,100.00
2023-03-06T20:58:09.897Z,100.00
2023-03-06T21:01:26.236Z,100.00
2023-03-06T21:04:28.342Z,100.00
2023-03-06T21:07:30.287Z,100.00
2023-03-06T21:10:32.129Z,100.00
2023-03-06T21:13:34.134Z,100.00
2023-03-06T21:16:36.278Z,100.00
2023-03-06T21:19:38.623Z,100.00
2023-03-06T21:22:40.708Z,100.00
2023-03-06T21:25:52.337Z,100.00
2023-03-06T21:28:54.792Z,100.00
2023-03-06T21:31:57.516Z,100.00
2023-03-06T21:34:59.447Z,100.00
2023-03-06T21:38:01.283Z,100.00
2023-03-06T21:41:35.621Z,100.00
2023-03-06T21:44:37.370Z,99.93
2023-03-06T21:47:40.946Z,99.64
2023-03-06T21:50:42.884Z,99.39
2023-03-06T21:53:45.392Z,99.18
2023-03-06T21:56:47.231Z,99.08
2023-03-06T21:59:49.019Z,99.37
2023-03-06T22:02:50.893Z,99.64
2023-03-06T22:05:52.822Z,100.00
2023-03-06T22:08:55.924Z,100.00
2023-03-06T22:11:58.273Z,100.00
2023-03-06T22:15:00.102Z,100.00
2023-03-06T22:18:01.805Z,100.00
2023-03-06T22:21:12.373Z,100.00
2023-03-06T22:24:14.122Z,100.00
2023-03-06T22:27:15.952Z,100.00
2023-03-06T22:30:17.961Z,100.00
2023-03-06T22:33:19.795Z,100.00
2023-03-06T22:36:22.702Z,100.00
2023-03-06T22:39:24.506Z,100.00
2023-03-06T22:42:26.220Z,100.00
2023-03-06T22:45:28.007Z,100.00
2023-03-06T22:48:30.079Z,100.00
2023-03-06T22:51:31.920Z,100.00
2023-03-06T22:54:33.740Z,100.00
2023-03-06T22:57:35.517Z,100.00
2023-03-06T23:00:37.426Z,100.00
2023-03-06T23:03:49.546Z,100.00
2023-03-06T23:06:51.322Z,100.00
2023-03-06T23:09:53.086Z,100.00
2023-03-06T23:12:54.861Z,100.00
2023-03-06T23:15:56.743Z,100.00
2023-03-06T23:18:58.761Z,100.00
2023-03-06T23:22:00.533Z,100.00
2023-03-06T23:25:02.392Z,100.00
2023-03-06T23:28:04.260Z,100.00
2023-03-06T23:31:08.168Z,100.00
2023-03-06T23:34:11.525Z,100.00
2023-03-06T23:37:13.342Z,100.00
2023-03-06T23:40:15.156Z,100.00
2023-03-06T23:43:16.885Z,100.00
2023-03-06T23:46:18.784Z,100.00
2023-03-06T23:49:21.979Z,100.00
2023-03-06T23:52:23.955Z,100.00
2023-03-06T23:55:26.132Z,100.00
2023-03-06T23:58:28.531Z,100.00
